sensor_id;sensor_type;location;lat;lon;timestamp;temperature;humidity
23311;DHT22;11828;51.508;18.118;2023-05-18T00:02:01;25.10;28.60
23311;DHT22;11828;51.508;18.118;2023-05-18T00:04:29;24.80;28.80
23311;DHT22;11828;51.508;18.118;2023-05-18T00:06:57;25.10;39.40
23311;DHT22;11828;51.508;18.118;2023-05-18T00:09:29;25.60;38.10
23311;DHT22;11828;51.508;18.118;2023-05-18T00:11:57;24.90;38.00
23311;DHT22;11828;51.508;18.118;2023-05-18T00:14:24;24.90;38.90
23311;DHT22;11828;51.508;18.118;2023-05-18T00:16:50;25.00;38.40
23311;DHT22;11828;51.508;18.118;2023-05-18T00:19:22;25.00;39.80
23311;DHT22;11828;51.508;18.118;2023-05-18T00:21:49;24.90;29.00
23311;DHT22;11828;51.508;18.118;2023-05-18T00:24:17;24.80;38.30
23311;DHT22;11828;51.508;18.118;2023-05-18T00:26:45;24.90;39.20
23311;DHT22;11828;51.508;18.118;2023-05-18T00:31:39;25.00;40.10
23311;DHT22;11828;51.508;18.118;2023-05-18T00:34:06;24.80;35.50
23311;DHT22;11828;51.508;18.118;2023-05-18T00:36:34;25.30;29.60
23311;DHT22;11828;51.508;18.118;2023-05-18T00:39:02;24.80;31.40
23311;DHT22;11828;51.508;18.118;2023-05-18T00:41:29;24.80;29.50
23311;DHT22;11828;51.508;18.118;2023-05-18T00:43:56;24.30;30.90
23311;DHT22;11828;51.508;18.118;2023-05-18T00:46:24;24.70;39.70
23311;DHT22;11828;51.508;18.118;2023-05-18T00:48:53;25.10;38.50
23311;DHT22;11828;51.508;18.118;2023-05-18T00:51:22;25.00;40.10
23311;DHT22;11828;51.508;18.118;2023-05-18T00:53:50;24.90;29.30
23311;DHT22;11828;51.508;18.118;2023-05-18T00:58:45;24.80;30.80
23311;DHT22;11828;51.508;18.118;2023-05-18T01:03:39;25.90;29.70
23311;DHT22;11828;51.508;18.118;2023-05-18T01:06:06;25.00;36.80
23311;DHT22;11828;51.508;18.118;2023-05-18T01:08:35;24.80;39.30
23311;DHT22;11828;51.508;18.118;2023-05-18T01:16:27;24.90;39.20
23311;DHT22;11828;51.508;18.118;2023-05-18T01:19:05;24.50;28.40
23311;DHT22;11828;51.508;18.118;2023-05-18T01:24:45;24.80;39.60
23311;DHT22;11828;51.508;18.118;2023-05-18T01:27:16;24.80;36.70
23311;DHT22;11828;51.508;18.118;2023-05-18T01:29:44;24.80;38.20
23311;DHT22;11828;51.508;18.118;2023-05-18T01:32:18;24.70;28.60
23311;DHT22;11828;51.508;18.118;2023-05-18T01:34:47;24.60;35.70
23311;DHT22;11828;51.508;18.118;2023-05-18T01:39:42;24.80;40.10
23311;DHT22;11828;51.508;18.118;2023-05-18T01:42:18;25.00;41.00
23311;DHT22;11828;51.508;18.118;2023-05-18T01:45:02;24.90;40.40
23311;DHT22;11828;51.508;18.118;2023-05-18T01:47:33;24.80;29.30
23311;DHT22;11828;51.508;18.118;2023-05-18T01:50:08;24.80;32.50
23311;DHT22;11828;51.508;18.118;2023-05-18T01:52:45;24.70;33.50
23311;DHT22;11828;51.508;18.118;2023-05-18T01:55:18;24.70;29.50
23311;DHT22;11828;51.508;18.118;2023-05-18T01:57:45;24.90;41.60
23311;DHT22;11828;51.508;18.118;2023-05-18T02:00:15;24.50;41.00
23311;DHT22;11828;51.508;18.118;2023-05-18T02:02:42;24.60;41.30
23311;DHT22;11828;51.508;18.118;2023-05-18T02:05:09;24.50;33.30
23311;DHT22;11828;51.508;18.118;2023-05-18T02:07:39;24.20;40.20
23311;DHT22;11828;51.508;18.118;2023-05-18T02:10:09;24.20;40.40
23311;DHT22;11828;51.508;18.118;2023-05-18T02:12:35;24.20;40.20
23311;DHT22;11828;51.508;18.118;2023-05-18T02:15:02;24.00;38.60
23311;DHT22;11828;51.508;18.118;2023-05-18T02:17:34;24.10;30.20
23311;DHT22;11828;51.508;18.118;2023-05-18T02:20:04;23.90;40.90
23311;DHT22;11828;51.508;18.118;2023-05-18T02:22:35;24.00;32.50
23311;DHT22;11828;51.508;18.118;2023-05-18T02:25:02;24.10;37.00
23311;DHT22;11828;51.508;18.118;2023-05-18T02:32:23;23.90;39.70
23311;DHT22;11828;51.508;18.118;2023-05-18T02:34:53;24.00;31.30
23311;DHT22;11828;51.508;18.118;2023-05-18T02:39:47;23.90;41.20
23311;DHT22;11828;51.508;18.118;2023-05-18T02:42:14;23.80;38.80
23311;DHT22;11828;51.508;18.118;2023-05-18T02:47:08;23.60;40.80
23311;DHT22;11828;51.508;18.118;2023-05-18T02:49:34;23.80;39.70
23311;DHT22;11828;51.508;18.118;2023-05-18T02:52:00;23.80;39.50
23311;DHT22;11828;51.508;18.118;2023-05-18T02:54:26;23.60;32.00
23311;DHT22;11828;51.508;18.118;2023-05-18T02:59:21;23.60;36.70
23311;DHT22;11828;51.508;18.118;2023-05-18T03:04:23;23.70;33.50
23311;DHT22;11828;51.508;18.118;2023-05-18T03:06:50;23.60;40.00
23311;DHT22;11828;51.508;18.118;2023-05-18T03:09:18;23.50;41.70
23311;DHT22;11828;51.508;18.118;2023-05-18T03:11:44;23.50;34.60
23311;DHT22;11828;51.508;18.118;2023-05-18T03:14:10;23.50;42.00
23311;DHT22;11828;51.508;18.118;2023-05-18T03:19:04;23.50;40.90
23311;DHT22;11828;51.508;18.118;2023-05-18T03:21:30;23.40;33.40
23311;DHT22;11828;51.508;18.118;2023-05-18T03:24:03;23.60;32.20
23311;DHT22;11828;51.508;18.118;2023-05-18T03:28:57;23.50;38.70
23311;DHT22;11828;51.508;18.118;2023-05-18T03:31:24;23.60;41.40
23311;DHT22;11828;51.508;18.118;2023-05-18T03:33:50;23.40;42.00
23311;DHT22;11828;51.508;18.118;2023-05-18T03:38:47;23.60;43.30
23311;DHT22;11828;51.508;18.118;2023-05-18T03:43:39;23.50;42.70
23311;DHT22;11828;51.508;18.118;2023-05-18T03:46:06;23.60;33.20
23311;DHT22;11828;51.508;18.118;2023-05-18T03:48:32;23.60;44.50
23311;DHT22;11828;51.508;18.118;2023-05-18T03:50:58;23.60;43.30
23311;DHT22;11828;51.508;18.118;2023-05-18T03:53:24;23.40;34.00
23311;DHT22;11828;51.508;18.118;2023-05-18T03:55:51;23.60;44.00
23311;DHT22;11828;51.508;18.118;2023-05-18T04:00:47;19.40;29.40
23311;DHT22;11828;51.508;18.118;2023-05-18T04:03:14;23.50;35.90
23311;DHT22;11828;51.508;18.118;2023-05-18T04:05:41;23.80;41.20
23311;DHT22;11828;51.508;18.118;2023-05-18T04:08:11;23.70;33.20
23311;DHT22;11828;51.508;18.118;2023-05-18T04:10:43;23.70;31.40
23311;DHT22;11828;51.508;18.118;2023-05-18T04:15:36;23.50;32.80
23311;DHT22;11828;51.508;18.118;2023-05-18T04:18:02;23.80;42.10
23311;DHT22;11828;51.508;18.118;2023-05-18T04:20:29;23.50;31.70
23311;DHT22;11828;51.508;18.118;2023-05-18T04:22:55;23.70;35.40
23311;DHT22;11828;51.508;18.118;2023-05-18T04:25:25;23.90;31.70
23311;DHT22;11828;51.508;18.118;2023-05-18T04:27:53;23.60;41.80
23311;DHT22;11828;51.508;18.118;2023-05-18T04:30:20;23.90;41.90
23311;DHT22;11828;51.508;18.118;2023-05-18T04:32:49;23.80;41.90
23311;DHT22;11828;51.508;18.118;2023-05-18T04:35:15;24.00;41.20
23311;DHT22;11828;51.508;18.118;2023-05-18T04:37:43;23.80;40.80
23311;DHT22;11828;51.508;18.118;2023-05-18T04:40:10;24.00;30.70
23311;DHT22;11828;51.508;18.118;2023-05-18T04:42:39;24.20;40.40
23311;DHT22;11828;51.508;18.118;2023-05-18T04:45:14;24.00;40.50
23311;DHT22;11828;51.508;18.118;2023-05-18T04:47:44;24.30;41.00
23311;DHT22;11828;51.508;18.118;2023-05-18T04:50:13;24.00;41.20
23311;DHT22;11828;51.508;18.118;2023-05-18T04:52:44;24.30;40.30
23311;DHT22;11828;51.508;18.118;2023-05-18T04:55:20;24.30;32.90
23311;DHT22;11828;51.508;18.118;2023-05-18T04:57:53;24.20;38.60
23311;DHT22;11828;51.508;18.118;2023-05-18T05:00:23;24.90;40.60
23311;DHT22;11828;51.508;18.118;2023-05-18T05:02:50;24.40;31.20
23311;DHT22;11828;51.508;18.118;2023-05-18T05:07:44;24.50;38.30
23311;DHT22;11828;51.508;18.118;2023-05-18T05:10:10;24.90;37.80
23311;DHT22;11828;51.508;18.118;2023-05-18T05:12:37;24.90;39.00
23311;DHT22;11828;51.508;18.118;2023-05-18T05:15:03;24.90;29.50
23311;DHT22;11828;51.508;18.118;2023-05-18T05:17:30;24.80;36.20
23311;DHT22;11828;51.508;18.118;2023-05-18T05:19:56;24.90;30.90
23311;DHT22;11828;51.508;18.118;2023-05-18T05:22:22;25.10;36.60
23311;DHT22;11828;51.508;18.118;2023-05-18T05:24:49;25.00;29.70
23311;DHT22;11828;51.508;18.118;2023-05-18T05:27:15;25.10;29.60
23311;DHT22;11828;51.508;18.118;2023-05-18T05:29:41;25.30;29.30
23311;DHT22;11828;51.508;18.118;2023-05-18T05:32:08;25.40;29.70
23311;DHT22;11828;51.508;18.118;2023-05-18T05:34:35;25.60;29.10
23311;DHT22;11828;51.508;18.118;2023-05-18T05:37:02;25.60;29.50
23311;DHT22;11828;51.508;18.118;2023-05-18T05:39:29;25.70;29.30
23311;DHT22;11828;51.508;18.118;2023-05-18T05:41:55;25.80;29.20
23311;DHT22;11828;51.508;18.118;2023-05-18T05:44:22;26.10;34.80
23311;DHT22;11828;51.508;18.118;2023-05-18T05:46:48;25.90;32.90
23311;DHT22;11828;51.508;18.118;2023-05-18T05:49:14;25.90;28.70
23311;DHT22;11828;51.508;18.118;2023-05-18T05:51:40;26.10;35.70
23311;DHT22;11828;51.508;18.118;2023-05-18T05:54:06;26.10;28.60
23311;DHT22;11828;51.508;18.118;2023-05-18T05:56:32;26.60;35.40
23311;DHT22;11828;51.508;18.118;2023-05-18T06:01:25;26.80;29.10
23311;DHT22;11828;51.508;18.118;2023-05-18T06:03:52;27.00;34.80
23311;DHT22;11828;51.508;18.118;2023-05-18T06:06:18;27.10;28.00
23311;DHT22;11828;51.508;18.118;2023-05-18T06:08:44;27.40;27.70
23311;DHT22;11828;51.508;18.118;2023-05-18T06:11:10;27.70;31.20
23311;DHT22;11828;51.508;18.118;2023-05-18T06:13:37;27.90;27.60
23311;DHT22;11828;51.508;18.118;2023-05-18T06:16:04;28.30;31.60
23311;DHT22;11828;51.508;18.118;2023-05-18T06:18:30;28.60;31.70
23311;DHT22;11828;51.508;18.118;2023-05-18T06:20:56;28.70;31.90
23311;DHT22;11828;51.508;18.118;2023-05-18T06:25:52;29.30;29.80
23311;DHT22;11828;51.508;18.118;2023-05-18T06:28:19;29.10;26.00
23311;DHT22;11828;51.508;18.118;2023-05-18T06:33:11;29.70;29.80
23311;DHT22;11828;51.508;18.118;2023-05-18T06:35:39;29.50;29.50
23311;DHT22;11828;51.508;18.118;2023-05-18T06:38:06;29.80;24.90
23311;DHT22;11828;51.508;18.118;2023-05-18T06:40:32;29.60;28.60
23311;DHT22;11828;51.508;18.118;2023-05-18T06:42:58;29.80;25.30
23311;DHT22;11828;51.508;18.118;2023-05-18T06:45:24;29.80;29.10
23311;DHT22;11828;51.508;18.118;2023-05-18T06:50:17;29.50;25.10
23311;DHT22;11828;51.508;18.118;2023-05-18T06:52:44;30.30;28.90
23311;DHT22;11828;51.508;18.118;2023-05-18T06:57:37;30.30;28.50
23311;DHT22;11828;51.508;18.118;2023-05-18T07:00:03;30.10;28.10
23311;DHT22;11828;51.508;18.118;2023-05-18T07:02:32;30.60;28.40
23311;DHT22;11828;51.508;18.118;2023-05-18T07:04:58;30.40;27.30
23311;DHT22;11828;51.508;18.118;2023-05-18T07:07:26;30.70;26.80
23311;DHT22;11828;51.508;18.118;2023-05-18T07:09:52;30.60;26.80
23311;DHT22;11828;51.508;18.118;2023-05-18T07:12:19;30.70;27.40
23311;DHT22;11828;51.508;18.118;2023-05-18T07:14:46;31.10;27.00
23311;DHT22;11828;51.508;18.118;2023-05-18T07:17:12;31.50;26.50
23311;DHT22;11828;51.508;18.118;2023-05-18T07:19:38;31.40;26.40
23311;DHT22;11828;51.508;18.118;2023-05-18T07:22:04;31.00;27.30
23311;DHT22;11828;51.508;18.118;2023-05-18T07:24:32;31.70;25.90
23311;DHT22;11828;51.508;18.118;2023-05-18T07:26:58;31.90;24.40
23311;DHT22;11828;51.508;18.118;2023-05-18T07:29:24;31.80;26.20
23311;DHT22;11828;51.508;18.118;2023-05-18T07:31:50;32.20;26.40
23311;DHT22;11828;51.508;18.118;2023-05-18T07:34:16;32.60;26.10
23311;DHT22;11828;51.508;18.118;2023-05-18T07:41:46;33.00;23.40
23311;DHT22;11828;51.508;18.118;2023-05-18T07:44:13;33.90;23.60
23311;DHT22;11828;51.508;18.118;2023-05-18T07:46:42;34.20;24.00
23311;DHT22;11828;51.508;18.118;2023-05-18T07:49:08;34.70;22.60
23311;DHT22;11828;51.508;18.118;2023-05-18T07:56:28;36.80;20.50
23311;DHT22;11828;51.508;18.118;2023-05-18T07:58:54;36.60;19.90
23311;DHT22;11828;51.508;18.118;2023-05-18T08:01:21;37.30;19.90
23311;DHT22;11828;51.508;18.118;2023-05-18T08:03:52;37.80;19.90
23311;DHT22;11828;51.508;18.118;2023-05-18T08:06:19;38.10;19.30
23311;DHT22;11828;51.508;18.118;2023-05-18T08:08:45;38.50;19.20
23311;DHT22;11828;51.508;18.118;2023-05-18T08:11:12;38.90;19.00
23311;DHT22;11828;51.508;18.118;2023-05-18T08:13:38;39.40;18.30
23311;DHT22;11828;51.508;18.118;2023-05-18T08:16:04;39.60;17.70
23311;DHT22;11828;51.508;18.118;2023-05-18T08:18:30;39.40;17.60
23311;DHT22;11828;51.508;18.118;2023-05-18T08:20:57;39.10;17.90
23311;DHT22;11828;51.508;18.118;2023-05-18T08:23:23;39.00;18.00
23311;DHT22;11828;51.508;18.118;2023-05-18T08:25:50;39.10;18.20
23311;DHT22;11828;51.508;18.118;2023-05-18T08:28:16;39.50;18.00
23311;DHT22;11828;51.508;18.118;2023-05-18T08:30:42;39.80;17.60
23311;DHT22;11828;51.508;18.118;2023-05-18T08:33:08;40.20;17.50
23311;DHT22;11828;51.508;18.118;2023-05-18T08:35:34;40.50;17.50
23311;DHT22;11828;51.508;18.118;2023-05-18T08:38:01;40.90;17.90
23311;DHT22;11828;51.508;18.118;2023-05-18T08:40:36;41.20;17.00
23311;DHT22;11828;51.508;18.118;2023-05-18T08:43:17;41.60;16.60
23311;DHT22;11828;51.508;18.118;2023-05-18T08:46:01;41.90;16.60
23311;DHT22;11828;51.508;18.118;2023-05-18T08:48:31;42.40;15.90
23311;DHT22;11828;51.508;18.118;2023-05-18T08:51:01;42.70;16.40
23311;DHT22;11828;51.508;18.118;2023-05-18T08:53:29;43.00;16.10
23311;DHT22;11828;51.508;18.118;2023-05-18T08:55:57;43.10;15.50
23311;DHT22;11828;51.508;18.118;2023-05-18T08:58:45;43.30;15.60
23311;DHT22;11828;51.508;18.118;2023-05-18T09:01:13;43.30;14.90
23311;DHT22;11828;51.508;18.118;2023-05-18T09:03:40;43.40;15.60
23311;DHT22;11828;51.508;18.118;2023-05-18T09:06:07;43.60;15.30
23311;DHT22;11828;51.508;18.118;2023-05-18T09:08:34;43.60;15.10
23311;DHT22;11828;51.508;18.118;2023-05-18T09:11:02;43.60;14.90
23311;DHT22;11828;51.508;18.118;2023-05-18T09:13:28;43.40;14.90
23311;DHT22;11828;51.508;18.118;2023-05-18T09:15:55;43.30;15.00
23311;DHT22;11828;51.508;18.118;2023-05-18T09:18:21;43.00;15.00
23311;DHT22;11828;51.508;18.118;2023-05-18T09:20:47;42.70;15.20
23311;DHT22;11828;51.508;18.118;2023-05-18T09:23:15;42.50;15.30
23311;DHT22;11828;51.508;18.118;2023-05-18T09:25:44;42.40;15.20
23311;DHT22;11828;51.508;18.118;2023-05-18T09:28:12;42.00;15.20
23311;DHT22;11828;51.508;18.118;2023-05-18T09:30:41;41.50;15.00
23311;DHT22;11828;51.508;18.118;2023-05-18T09:33:17;41.50;15.50
23311;DHT22;11828;51.508;18.118;2023-05-18T09:35:46;41.20;16.00
23311;DHT22;11828;51.508;18.118;2023-05-18T09:38:15;41.10;15.80
23311;DHT22;11828;51.508;18.118;2023-05-18T09:40:48;40.90;15.90
23311;DHT22;11828;51.508;18.118;2023-05-18T09:43:18;40.80;15.80
23311;DHT22;11828;51.508;18.118;2023-05-18T09:45:46;40.70;15.70
23311;DHT22;11828;51.508;18.118;2023-05-18T09:48:14;40.70;15.80
23311;DHT22;11828;51.508;18.118;2023-05-18T09:50:44;40.80;15.90
23311;DHT22;11828;51.508;18.118;2023-05-18T09:53:12;40.90;16.20
23311;DHT22;11828;51.508;18.118;2023-05-18T09:55:46;40.90;16.10
23311;DHT22;11828;51.508;18.118;2023-05-18T09:58:14;40.90;16.10
23311;DHT22;11828;51.508;18.118;2023-05-18T10:00:42;41.30;16.30
23311;DHT22;11828;51.508;18.118;2023-05-18T10:03:20;41.90;16.20
23311;DHT22;11828;51.508;18.118;2023-05-18T10:05:49;42.60;15.60
23311;DHT22;11828;51.508;18.118;2023-05-18T10:08:16;43.10;15.70
23311;DHT22;11828;51.508;18.118;2023-05-18T10:10:45;43.60;15.30
23311;DHT22;11828;51.508;18.118;2023-05-18T10:13:15;43.80;15.00
23311;DHT22;11828;51.508;18.118;2023-05-18T10:15:50;43.60;14.90
23311;DHT22;11828;51.508;18.118;2023-05-18T10:18:23;43.50;14.70
23311;DHT22;11828;51.508;18.118;2023-05-18T10:20:52;43.70;14.90
23311;DHT22;11828;51.508;18.118;2023-05-18T10:23:22;44.00;14.90
23311;DHT22;11828;51.508;18.118;2023-05-18T10:25:49;44.00;14.90
23311;DHT22;11828;51.508;18.118;2023-05-18T10:28:40;43.80;14.70
23311;DHT22;11828;51.508;18.118;2023-05-18T10:31:08;43.50;14.80
23311;DHT22;11828;51.508;18.118;2023-05-18T10:33:36;43.30;14.80
23311;DHT22;11828;51.508;18.118;2023-05-18T10:36:04;43.00;14.80
23311;DHT22;11828;51.508;18.118;2023-05-18T10:38:31;43.00;15.00
23311;DHT22;11828;51.508;18.118;2023-05-18T10:40:59;42.90;15.00
23311;DHT22;11828;51.508;18.118;2023-05-18T10:43:26;42.90;15.10
23311;DHT22;11828;51.508;18.118;2023-05-18T10:46:00;42.70;14.90
23311;DHT22;11828;51.508;18.118;2023-05-18T10:48:28;42.40;14.60
23311;DHT22;11828;51.508;18.118;2023-05-18T10:50:56;42.30;15.10
23311;DHT22;11828;51.508;18.118;2023-05-18T10:53:24;42.30;15.40
23311;DHT22;11828;51.508;18.118;2023-05-18T10:55:52;42.40;15.50
23311;DHT22;11828;51.508;18.118;2023-05-18T10:58:20;42.60;15.50
23311;DHT22;11828;51.508;18.118;2023-05-18T11:00:51;42.70;15.60
23311;DHT22;11828;51.508;18.118;2023-05-18T11:03:24;42.60;15.20
23311;DHT22;11828;51.508;18.118;2023-05-18T11:06:12;42.20;15.10
23311;DHT22;11828;51.508;18.118;2023-05-18T11:08:47;41.80;15.50
23311;DHT22;11828;51.508;18.118;2023-05-18T11:11:15;41.70;15.50
23311;DHT22;11828;51.508;18.118;2023-05-18T11:13:47;41.70;15.70
23311;DHT22;11828;51.508;18.118;2023-05-18T11:16:15;41.90;15.70
23311;DHT22;11828;51.508;18.118;2023-05-18T11:18:49;42.20;15.90
23311;DHT22;11828;51.508;18.118;2023-05-18T11:26:46;43.00;15.00
23311;DHT22;11828;51.508;18.118;2023-05-18T11:31:56;43.10;15.10
23311;DHT22;11828;51.508;18.118;2023-05-18T11:34:41;43.10;15.40
23311;DHT22;11828;51.508;18.118;2023-05-18T11:37:14;42.90;15.30
23311;DHT22;11828;51.508;18.118;2023-05-18T11:39:44;42.60;15.50
23311;DHT22;11828;51.508;18.118;2023-05-18T11:42:18;42.40;15.50
23311;DHT22;11828;51.508;18.118;2023-05-18T11:44:52;42.20;15.70
23311;DHT22;11828;51.508;18.118;2023-05-18T11:47:28;41.70;15.60
23311;DHT22;11828;51.508;18.118;2023-05-18T11:49:56;41.40;15.80
23311;DHT22;11828;51.508;18.118;2023-05-18T11:52:23;40.90;16.20
23311;DHT22;11828;51.508;18.118;2023-05-18T11:57:23;40.60;16.40
23311;DHT22;11828;51.508;18.118;2023-05-18T11:59:57;40.60;16.70
23311;DHT22;11828;51.508;18.118;2023-05-18T12:02:31;40.60;17.20
23311;DHT22;11828;51.508;18.118;2023-05-18T12:04:59;40.50;16.40
23311;DHT22;11828;51.508;18.118;2023-05-18T12:07:28;40.50;16.40
23311;DHT22;11828;51.508;18.118;2023-05-18T12:10:10;40.60;16.50
23311;DHT22;11828;51.508;18.118;2023-05-18T12:12:38;40.50;16.60
23311;DHT22;11828;51.508;18.118;2023-05-18T12:15:06;40.60;16.60
23311;DHT22;11828;51.508;18.118;2023-05-18T12:17:45;40.60;16.70
23311;DHT22;11828;51.508;18.118;2023-05-18T12:20:14;40.60;16.80
23311;DHT22;11828;51.508;18.118;2023-05-18T12:22:46;40.50;16.90
23311;DHT22;11828;51.508;18.118;2023-05-18T12:25:18;40.20;16.90
23311;DHT22;11828;51.508;18.118;2023-05-18T12:27:49;39.80;17.10
23311;DHT22;11828;51.508;18.118;2023-05-18T12:30:24;39.60;17.30
23311;DHT22;11828;51.508;18.118;2023-05-18T12:33:00;39.50;17.40
23311;DHT22;11828;51.508;18.118;2023-05-18T12:35:30;39.20;17.40
23311;DHT22;11828;51.508;18.118;2023-05-18T12:37:57;38.70;17.60
23311;DHT22;11828;51.508;18.118;2023-05-18T12:40:33;38.20;17.80
23311;DHT22;11828;51.508;18.118;2023-05-18T12:43:09;37.60;18.00
23311;DHT22;11828;51.508;18.118;2023-05-18T12:45:35;38.00;19.00
23311;DHT22;11828;51.508;18.118;2023-05-18T12:48:11;37.60;19.10
23311;DHT22;11828;51.508;18.118;2023-05-18T12:50:48;37.40;18.60
23311;DHT22;11828;51.508;18.118;2023-05-18T12:53:16;37.30;18.90
23311;DHT22;11828;51.508;18.118;2023-05-18T12:55:43;37.20;18.60
23311;DHT22;11828;51.508;18.118;2023-05-18T12:58:16;37.00;18.80
23311;DHT22;11828;51.508;18.118;2023-05-18T13:00:47;36.60;20.40
23311;DHT22;11828;51.508;18.118;2023-05-18T13:03:18;36.30;19.10
23311;DHT22;11828;51.508;18.118;2023-05-18T13:06:03;35.90;19.20
23311;DHT22;11828;51.508;18.118;2023-05-18T13:08:32;35.60;19.80
23311;DHT22;11828;51.508;18.118;2023-05-18T13:11:07;35.50;19.70
23311;DHT22;11828;51.508;18.118;2023-05-18T13:13:33;35.30;19.80
23311;DHT22;11828;51.508;18.118;2023-05-18T13:15:59;35.30;19.90
23311;DHT22;11828;51.508;18.118;2023-05-18T13:18:26;35.20;19.90
23311;DHT22;11828;51.508;18.118;2023-05-18T13:20:55;34.80;21.80
23311;DHT22;11828;51.508;18.118;2023-05-18T13:23:26;34.90;20.00
23311;DHT22;11828;51.508;18.118;2023-05-18T13:25:53;35.00;22.00
23311;DHT22;11828;51.508;18.118;2023-05-18T13:28:20;35.00;20.30
23311;DHT22;11828;51.508;18.118;2023-05-18T13:30:47;35.10;20.20
23311;DHT22;11828;51.508;18.118;2023-05-18T13:33:16;35.10;20.00
23311;DHT22;11828;51.508;18.118;2023-05-18T13:35:43;35.20;20.10
23311;DHT22;11828;51.508;18.118;2023-05-18T13:38:11;35.30;19.90
23311;DHT22;11828;51.508;18.118;2023-05-18T13:40:39;35.30;19.70
23311;DHT22;11828;51.508;18.118;2023-05-18T13:45:34;35.50;20.70
23311;DHT22;11828;51.508;18.118;2023-05-18T13:48:01;35.60;20.00
23311;DHT22;11828;51.508;18.118;2023-05-18T13:50:31;35.70;19.90
23311;DHT22;11828;51.508;18.118;2023-05-18T13:52:58;35.80;19.80
23311;DHT22;11828;51.508;18.118;2023-05-18T13:55:24;35.70;19.50
23311;DHT22;11828;51.508;18.118;2023-05-18T13:57:50;35.70;19.60
23311;DHT22;11828;51.508;18.118;2023-05-18T14:00:17;35.70;19.80
23311;DHT22;11828;51.508;18.118;2023-05-18T14:02:45;35.50;20.00
23311;DHT22;11828;51.508;18.118;2023-05-18T14:05:12;35.50;19.90
23311;DHT22;11828;51.508;18.118;2023-05-18T14:07:40;35.30;20.10
23311;DHT22;11828;51.508;18.118;2023-05-18T14:10:09;35.10;21.60
23311;DHT22;11828;51.508;18.118;2023-05-18T14:12:37;35.40;20.30
23311;DHT22;11828;51.508;18.118;2023-05-18T14:15:04;35.50;20.30
23311;DHT22;11828;51.508;18.118;2023-05-18T14:17:30;35.40;20.20
23311;DHT22;11828;51.508;18.118;2023-05-18T14:20:02;35.30;20.30
23311;DHT22;11828;51.508;18.118;2023-05-18T14:22:32;35.20;20.40
23311;DHT22;11828;51.508;18.118;2023-05-18T14:24:58;35.30;20.50
23311;DHT22;11828;51.508;18.118;2023-05-18T14:27:24;35.30;20.40
23311;DHT22;11828;51.508;18.118;2023-05-18T14:29:50;35.30;20.30
23311;DHT22;11828;51.508;18.118;2023-05-18T14:32:17;35.20;20.30
23311;DHT22;11828;51.508;18.118;2023-05-18T14:34:45;34.90;20.40
23311;DHT22;11828;51.508;18.118;2023-05-18T14:37:12;34.50;23.70
23311;DHT22;11828;51.508;18.118;2023-05-18T14:39:38;34.40;20.70
23311;DHT22;11828;51.508;18.118;2023-05-18T14:42:05;34.30;21.00
23311;DHT22;11828;51.508;18.118;2023-05-18T14:44:31;34.30;21.20
23311;DHT22;11828;51.508;18.118;2023-05-18T14:46:57;33.60;24.30
23311;DHT22;11828;51.508;18.118;2023-05-18T14:49:23;34.00;21.20
23311;DHT22;11828;51.508;18.118;2023-05-18T14:51:50;33.90;21.40
23311;DHT22;11828;51.508;18.118;2023-05-18T14:54:16;33.80;21.90
23311;DHT22;11828;51.508;18.118;2023-05-18T14:56:44;33.30;23.90
23311;DHT22;11828;51.508;18.118;2023-05-18T14:59:10;33.90;25.20
23311;DHT22;11828;51.508;18.118;2023-05-18T15:01:36;33.60;21.40
23311;DHT22;11828;51.508;18.118;2023-05-18T15:04:02;33.60;21.30
23311;DHT22;11828;51.508;18.118;2023-05-18T15:06:29;33.60;21.30
23311;DHT22;11828;51.508;18.118;2023-05-18T15:08:56;33.50;21.50
23311;DHT22;11828;51.508;18.118;2023-05-18T15:11:22;33.40;21.70
23311;DHT22;11828;51.508;18.118;2023-05-18T15:13:48;33.30;21.70
23311;DHT22;11828;51.508;18.118;2023-05-18T15:16:14;33.20;24.90
23311;DHT22;11828;51.508;18.118;2023-05-18T15:18:44;33.70;25.40
23311;DHT22;11828;51.508;18.118;2023-05-18T15:23:37;33.50;21.30
23311;DHT22;11828;51.508;18.118;2023-05-18T15:26:04;33.30;24.60
23311;DHT22;11828;51.508;18.118;2023-05-18T15:28:30;33.40;24.40
23311;DHT22;11828;51.508;18.118;2023-05-18T15:30:56;33.70;24.80
23311;DHT22;11828;51.508;18.118;2023-05-18T15:33:22;33.20;25.40
23311;DHT22;11828;51.508;18.118;2023-05-18T15:35:48;33.30;25.50
23311;DHT22;11828;51.508;18.118;2023-05-18T15:38:14;33.20;25.70
23311;DHT22;11828;51.508;18.118;2023-05-18T15:43:11;32.40;25.10
23311;DHT22;11828;51.508;18.118;2023-05-18T15:50:31;32.50;26.60
23311;DHT22;11828;51.508;18.118;2023-05-18T15:52:57;32.30;26.60
23311;DHT22;11828;51.508;18.118;2023-05-18T15:55:23;32.40;26.60
23311;DHT22;11828;51.508;18.118;2023-05-18T15:57:49;32.20;27.30
23311;DHT22;11828;51.508;18.118;2023-05-18T16:02:42;32.00;27.10
23311;DHT22;11828;51.508;18.118;2023-05-18T16:05:09;32.40;27.90
23311;DHT22;11828;51.508;18.118;2023-05-18T16:07:35;31.90;25.80
23311;DHT22;11828;51.508;18.118;2023-05-18T16:10:02;31.90;25.10
23311;DHT22;11828;51.508;18.118;2023-05-18T16:12:28;31.80;27.70
23311;DHT22;11828;51.508;18.118;2023-05-18T16:14:54;31.70;27.10
23311;DHT22;11828;51.508;18.118;2023-05-18T16:17:20;31.60;28.00
23311;DHT22;11828;51.508;18.118;2023-05-18T16:19:47;31.80;27.90
23311;DHT22;11828;51.508;18.118;2023-05-18T16:22:13;32.00;28.60
23311;DHT22;11828;51.508;18.118;2023-05-18T16:24:39;31.70;28.30
23311;DHT22;11828;51.508;18.118;2023-05-18T16:31:58;31.20;28.30
23311;DHT22;11828;51.508;18.118;2023-05-18T16:36:51;31.20;28.50
23311;DHT22;11828;51.508;18.118;2023-05-18T16:41:43;31.10;26.00
23311;DHT22;11828;51.508;18.118;2023-05-18T16:44:10;30.70;28.20
23311;DHT22;11828;51.508;18.118;2023-05-18T16:46:36;30.80;29.40
23311;DHT22;11828;51.508;18.118;2023-05-18T16:49:02;30.70;29.70
23311;DHT22;11828;51.508;18.118;2023-05-18T16:51:29;30.70;29.80
23311;DHT22;11828;51.508;18.118;2023-05-18T16:53:56;30.90;29.00
23311;DHT22;11828;51.508;18.118;2023-05-18T16:58:50;30.50;27.60
23311;DHT22;11828;51.508;18.118;2023-05-18T17:01:18;30.40;24.20
23311;DHT22;11828;51.508;18.118;2023-05-18T17:03:45;30.40;29.90
23311;DHT22;11828;51.508;18.118;2023-05-18T17:06:11;30.40;30.00
23311;DHT22;11828;51.508;18.118;2023-05-18T17:15:57;30.30;30.60
23311;DHT22;11828;51.508;18.118;2023-05-18T17:25:44;30.60;31.90
23311;DHT22;11828;51.508;18.118;2023-05-18T17:28:11;30.30;31.10